Time,TemperatureF,DewpointF,PressureIn,WindDirection,WindDirectionDegrees,WindSpeedMPH,WindSpeedGustMPH,Humidity,HourlyPrecipIn,Conditions,Clouds,dailyrainin,SoftwareType,DateUTC
2013-04-18 00:00:00,49.5,40.1,30.06,South,180,1.6,1.6,70,0.00,,,0.01,WUHU216HW,2013-04-18 07:00:00,
2013-04-18 00:05:00,49.5,40.1,30.06,South,180,1.6,1.6,70,0.00,,,0.01,WUHU216HW,2013-04-18 07:05:00,
2013-04-18 00:59:00,48.4,38.4,30.07,SSE,158,0.7,0.7,68,0.00,,,0.00,WUHU216HW,2013-04-18 07:59:00,
2013-04-18 01:00:00,48.4,38.4,30.07,SSE,158,0.7,0.7,68,0.00,,,0.00,WUHU216HW,2013-04-18 08:00:00,
2013-04-18 01:05:00,48.4,38.4,30.07,SSE,158,0.7,0.7,68,0.00,,,0.00,WUHU216HW,2013-04-18 08:05:00,
2013-04-18 01:59:00,47.2,38.3,30.07,SSW,203,2.7,2.7,71,0.00,,,0.00,WUHU216HW,2013-04-18 08:59:00,
2013-04-18 02:00:00,47.2,38.3,30.07,SSW,203,2.7,2.7,71,0.00,,,0.00,WUHU216HW,2013-04-18 09:00:00,
2013-04-18 02:05:00,47.2,38.3,30.07,SSW,203,2.7,2.7,71,0.00,,,0.00,WUHU216HW,2013-04-18 09:05:00,
2013-04-18 02:59:00,46.6,38.4,30.06,SSE,158,1.8,1.8,73,0.00,,,0.00,WUHU216HW,2013-04-18 09:59:00,
2013-04-18 03:00:00,46.6,38.4,30.06,SSE,158,1.8,1.8,73,0.00,,,0.00,WUHU216HW,2013-04-18 10:00:00,
2013-04-18 03:05:00,46.6,38.4,30.06,SSE,158,1.8,1.8,73,0.00,,,0.00,WUHU216HW,2013-04-18 10:05:00,
2013-04-18 03:59:00,46.8,38.6,30.07,SSE,158,0.2,0.2,73,0.00,,,0.00,WUHU216HW,2013-04-18 10:59:00,
2013-04-18 04:00:00,46.8,38.6,30.07,SSE,158,0.2,0.2,73,0.00,,,0.00,WUHU216HW,2013-04-18 11:00:00,
2013-04-18 04:05:00,46.8,38.6,30.07,SSE,158,0.2,0.2,73,0.00,,,0.00,WUHU216HW,2013-04-18 11:05:00,
2013-04-18 04:59:00,46.6,39.2,30.06,SE,135,1.8,1.8,75,0.00,,,0.00,WUHU216HW,2013-04-18 11:59:00,
2013-04-18 05:00:00,46.6,39.2,30.06,SE,135,1.8,1.8,75,0.00,,,0.00,WUHU216HW,2013-04-18 12:00:00,
2013-04-18 05:05:00,46.6,39.2,30.06,SE,135,1.8,1.8,75,0.00,,,0.00,WUHU216HW,2013-04-18 12:05:00,
2013-04-18 05:59:00,46.8,39.6,30.06,South,180,1.1,1.1,76,0.00,,,0.00,WUHU216HW,2013-04-18 12:59:00,
2013-04-18 06:00:00,46.8,39.6,30.06,South,180,1.1,1.1,76,0.00,,,0.00,WUHU216HW,2013-04-18 13:00:00,
2013-04-18 06:05:00,46.8,39.6,30.06,South,180,1.1,1.1,76,0.00,,,0.00,WUHU216HW,2013-04-18 13:05:00,
2013-04-18 06:59:00,46.4,39.7,30.06,SE,135,0.0,0.0,77,0.00,,,0.00,WUHU216HW,2013-04-18 13:59:00,
2013-04-18 07:00:00,46.4,39.7,30.06,SE,135,0.0,0.0,77,0.00,,,0.00,WUHU216HW,2013-04-18 14:00:00,
2013-04-18 07:05:00,46.4,39.7,30.06,SE,135,0.0,0.0,77,0.00,,,0.00,WUHU216HW,2013-04-18 14:05:00,
2013-04-18 07:59:00,47.2,40.7,30.07,SSE,158,2.0,2.0,78,0.00,,,0.00,WUHU216HW,2013-04-18 14:59:00,
2013-04-18 08:00:00,47.2,40.7,30.07,SSE,158,2.0,2.0,78,0.00,,,0.00,WUHU216HW,2013-04-18 15:00:00,
2013-04-18 08:05:00,47.2,40.7,30.07,SSE,158,2.0,2.0,78,0.00,,,0.00,WUHU216HW,2013-04-18 15:05:00,
2013-04-18 09:00:00,48.1,40.8,30.07,South,180,3.1,3.1,76,0.00,,,0.00,WUHU216HW,2013-04-18 16:00:00,
2013-04-18 09:05:00,48.1,40.8,30.07,South,180,3.1,3.1,76,0.00,,,0.00,WUHU216HW,2013-04-18 16:05:00,
2013-04-18 10:00:00,48.1,41.1,30.08,SSW,203,0.9,0.9,77,0.00,,,0.00,WUHU216HW,2013-04-18 17:00:00,
2013-04-18 10:05:00,48.1,41.1,30.08,SSW,203,0.9,0.9,77,0.00,,,0.00,WUHU216HW,2013-04-18 17:05:00,
2013-04-18 11:00:00,49.5,41.1,30.07,WNW,293,0.9,0.9,73,0.00,,,0.00,WUHU216HW,2013-04-18 18:00:00,
2013-04-18 11:05:00,49.5,41.1,30.07,WNW,293,0.9,0.9,73,0.00,,,0.00,WUHU216HW,2013-04-18 18:05:00,
2013-04-18 12:00:00,52.0,42.7,30.06,SSW,203,2.7,2.7,70,0.00,,,0.00,WUHU216HW,2013-04-18 19:00:00,
2013-04-18 12:05:00,52.0,42.7,30.06,SSW,203,2.7,2.7,70,0.00,,,0.00,WUHU216HW,2013-04-18 19:05:00,
2013-04-18 13:00:00,54.0,42.8,30.04,South,180,3.1,3.1,66,0.00,,,0.00,WUHU216HW,2013-04-18 20:00:00,
2013-04-18 13:05:00,54.0,42.8,30.04,South,180,3.1,3.1,66,0.00,,,0.00,WUHU216HW,2013-04-18 20:05:00,
2013-04-18 14:00:00,54.2,43.5,30.03,South,180,1.3,1.3,67,0.00,,,0.00,WUHU216HW,2013-04-18 21:00:00,
2013-04-18 14:05:00,54.2,43.5,30.03,South,180,1.3,1.3,67,0.00,,,0.00,WUHU216HW,2013-04-18 21:05:00,
2013-04-18 15:00:00,53.3,44.5,30.01,SSE,158,1.1,1.1,72,0.00,,,0.00,WUHU216HW,2013-04-18 22:00:00,
2013-04-18 15:05:00,53.3,44.5,30.01,SSE,158,1.1,1.1,72,0.00,,,0.00,WUHU216HW,2013-04-18 22:05:00,
2013-04-18 16:00:00,53.3,46.3,29.99,South,180,2.2,2.2,77,0.02,,,0.00,WUHU216HW,2013-04-18 23:00:00,
2013-04-18 16:05:00,53.3,46.3,29.99,South,180,2.2,2.2,77,0.02,,,0.00,WUHU216HW,2013-04-18 23:05:00,
2013-04-18 17:00:00,52.0,47.0,29.97,South,180,3.1,3.1,83,0.04,,,0.02,WUHU216HW,2013-04-19 00:00:00,
2013-04-18 18:00:00,51.3,47.2,29.96,SSE,158,2.7,2.7,86,0.03,,,0.06,WUHU216HW,2013-04-19 01:00:00,
2013-04-18 18:05:00,51.3,47.2,29.96,SSE,158,2.7,2.7,86,0.03,,,0.06,WUHU216HW,2013-04-19 01:05:00,
2013-04-18 19:00:00,51.1,48.0,29.93,SSW,203,2.5,2.5,89,0.03,,,0.10,WUHU216HW,2013-04-19 02:00:00,
2013-04-18 19:05:00,51.1,48.0,29.93,SSW,203,2.5,2.5,89,0.03,,,0.10,WUHU216HW,2013-04-19 02:05:00,
2013-04-18 20:00:00,50.8,47.6,29.91,South,180,3.4,3.4,89,0.01,,,0.13,WUHU216HW,2013-04-19 03:00:00,
2013-04-18 20:05:00,50.8,47.6,29.91,South,180,3.4,3.4,89,0.01,,,0.13,WUHU216HW,2013-04-19 03:05:00,
2013-04-18 21:00:00,50.4,47.5,29.90,South,180,2.7,2.7,90,0.01,,,0.14,WUHU216HW,2013-04-19 04:00:00,
2013-04-18 21:01:00,50.4,47.5,29.90,South,180,2.7,2.7,90,0.01,,,0.14,WUHU216HW,2013-04-19 04:01:00,
2013-04-18 21:06:00,50.4,47.5,29.90,South,180,2.7,2.7,90,0.01,,,0.14,WUHU216HW,2013-04-19 04:06:00,
2013-04-18 22:00:00,50.6,47.4,29.88,South,180,4.5,4.5,89,0.00,,,0.15,WUHU216HW,2013-04-19 05:00:00,
2013-04-18 22:05:00,50.6,47.4,29.88,South,180,4.5,4.5,89,0.00,,,0.15,WUHU216HW,2013-04-19 05:05:00,
2013-04-18 23:00:00,50.4,47.5,29.86,South,180,4.9,4.9,90,0.01,,,0.15,WUHU216HW,2013-04-19 06:00:00,
2013-04-18 23:05:00,50.4,47.5,29.86,South,180,5.2,7.4,90,0.01,,,0.16,WUHU216HW,2013-04-19 06:05:00,
2013-04-18 23:10:00,50.4,47.3,29.86,South,176,4.3,9.2,89,0.01,,,0.16,WUHU216HW,2013-04-19 06:10:00,
2013-04-18 23:15:00,50.4,47.3,29.85,SSE,167,5.3,9.2,89,0.01,,,0.16,WUHU216HW,2013-04-19 06:15:00,
2013-04-18 23:20:00,50.4,47.5,29.85,SSW,203,4.9,8.3,90,0.01,,,0.16,WUHU216HW,2013-04-19 06:20:00,
2013-04-18 23:25:00,50.4,47.3,29.85,South,177,2.8,6.3,89,0.02,,,0.17,WUHU216HW,2013-04-19 06:25:00,
2013-04-18 23:30:00,50.4,47.3,29.84,South,177,2.7,6.0,89,0.02,,,0.17,WUHU216HW,2013-04-19 06:30:00,
2013-04-18 23:35:00,50.2,47.3,29.84,South,173,3.5,6.0,90,0.01,,,0.17,WUHU216HW,2013-04-19 06:35:00,
2013-04-18 23:40:00,50.2,47.3,29.84,South,176,3.7,5.6,90,0.02,,,0.18,WUHU216HW,2013-04-19 06:40:00,
2013-04-18 23:45:00,50.2,47.3,29.83,SSW,203,3.1,5.6,90,0.02,,,0.18,WUHU216HW,2013-04-19 06:45:00,
2013-04-18 23:50:00,50.0,47.4,29.83,South,180,5.6,6.0,91,0.02,,,0.18,WUHU216HW,2013-04-19 06:50:00,
2013-04-18 23:55:00,50.0,47.4,29.83,SE,135,4.5,6.0,91,0.02,,,0.18,WUHU216HW,2013-04-19 06:55:00,